Time;durP1;ratioP1;P1;durP2;ratioP2;P2;SDS_P1;SDS_P2;PMS_P1;PMS_P2;Temp;Humidity;BMP_temperature;BMP_pressure;BME280_temperature;BME280_humidity;BME280_pressure;Samples;Min_cycle;Max_cycle;Signal;HPM_P1;HPM_P2
2021/12/21 00:01:54;;;;;;;39.72;18.17;;;;;;;;;;4989311;28;20427;-67
2021/12/21 00:04:19;;;;;;;42.58;18.58;;;;;;;;;;4989915;28;20496;-68
2021/12/21 00:06:44;;;;;;;40.05;18.45;;;;;;;;;;4988778;28;20395;-68
2021/12/21 00:09:09;;;;;;;38.72;18.33;;;;;;;;;;4989330;28;20536;-68
2021/12/21 00:11:35;;;;;;;40.35;18.55;;;;;;;;;;4989775;28;20026;-68
2021/12/21 00:14:20;;;;;;;45.85;19.02;;;;;;;;;;4991308;28;20033;-68
2021/12/21 00:17:12;;;;;;;39.00;18.67;;;;;;;;;;4993896;28;20026;-68
2021/12/21 00:20:06;;;;;;;49.75;20.23;;;;;;;;;;4991787;28;20026;-68
2021/12/21 00:25:15;;;;;;;46.17;21.75;;;;;;;;;;4993113;28;20072;-68
2021/12/21 00:27:41;;;;;;;42.22;18.80;;;;;;;;;;4993187;28;20754;-68
2021/12/21 00:30:07;;;;;;;46.55;19.98;;;;;;;;;;4992168;28;20032;-68
2021/12/21 00:32:32;;;;;;;42.65;18.70;;;;;;;;;;4992691;28;20121;-68
2021/12/21 00:34:57;;;;;;;43.25;18.65;;;;;;;;;;4991646;28;20022;-68
2021/12/21 00:37:26;;;;;;;40.00;17.83;;;;;;;;;;4991746;28;20053;-67
2021/12/21 00:39:52;;;;;;;38.40;18.00;;;;;;;;;;4991452;28;20361;-67
2021/12/21 00:42:17;;;;;;;37.08;17.27;;;;;;;;;;4992427;28;20105;-67
2021/12/21 00:44:42;;;;;;;45.08;18.30;;;;;;;;;;4992684;28;20121;-67
2021/12/21 00:47:08;;;;;;;47.70;19.92;;;;;;;;;;4992824;28;20022;-67
2021/12/21 00:49:35;;;;;;;39.70;18.67;;;;;;;;;;4992874;28;20057;-67
2021/12/21 00:52:00;;;;;;;46.13;19.42;;;;;;;;;;4992237;28;20084;-67
2021/12/21 00:54:26;;;;;;;38.53;18.42;;;;;;;;;;4992597;28;20030;-67
2021/12/21 00:56:51;;;;;;;42.67;18.42;;;;;;;;;;4992300;28;20049;-67
2021/12/21 00:59:17;;;;;;;44.58;19.15;;;;;;;;;;4992571;28;20397;-67
2021/12/21 01:01:42;;;;;;;47.63;19.50;;;;;;;;;;4991180;28;20493;-67
2021/12/21 01:04:15;;;;;;;48.53;18.63;;;;;;;;;;4992572;28;20399;-68
2021/12/21 01:06:46;;;;;;;44.40;18.45;;;;;;;;;;4992372;28;20018;-67
2021/12/21 01:12:02;;;;;;;40.53;18.00;;;;;;;;;;4970325;28;20504;-67
2021/12/21 01:15:03;;;;;;;45.03;17.83;;;;;;;;;;4991965;28;20093;-67
2021/12/21 01:17:35;;;;;;;37.65;17.45;;;;;;;;;;4991876;28;20040;-67
2021/12/21 01:20:24;;;;;;;48.40;19.30;;;;;;;;;;4990947;28;20030;-67
2021/12/21 01:28:29;;;;;;;44.20;18.80;;;;;;;;;;4992049;28;20076;-67
2021/12/21 01:30:43;;;;;;;37.45;18.48;;;;;;;;;;4984642;28;20080;-67
2021/12/21 01:33:31;;;;;;;41.95;18.35;;;;;;;;;;4991478;28;20041;-67
2021/12/21 01:35:55;;;;;;;38.28;17.95;;;;;;;;;;4991464;28;20031;-67
2021/12/21 01:38:35;;;;;;;40.22;18.92;;;;;;;;;;4992059;28;20485;-67
2021/12/21 01:41:22;;;;;;;49.92;19.27;;;;;;;;;;4991694;28;20023;-67
2021/12/21 01:44:05;;;;;;;40.85;18.52;;;;;;;;;;4990309;28;20026;-67
2021/12/21 01:49:56;;;;;;;44.75;17.80;;;;;;;;;;4991562;28;20104;-67
2021/12/21 01:52:09;;;;;;;40.40;17.92;;;;;;;;;;4990921;28;20508;-67
2021/12/21 01:54:35;;;;;;;43.47;18.42;;;;;;;;;;4990996;28;20073;-67
2021/12/21 01:57:00;;;;;;;47.00;18.95;;;;;;;;;;4990074;28;20242;-67
2021/12/21 01:59:26;;;;;;;45.00;19.60;;;;;;;;;;4991457;28;20041;-67
2021/12/21 02:01:51;;;;;;;38.95;19.05;;;;;;;;;;4990550;28;20035;-67
2021/12/21 02:04:17;;;;;;;43.22;19.30;;;;;;;;;;4990817;28;20038;-67
2021/12/21 02:06:43;;;;;;;41.95;18.75;;;;;;;;;;4991034;28;20022;-67
2021/12/21 02:09:08;;;;;;;42.67;19.52;;;;;;;;;;4989958;28;20056;-67
2021/12/21 02:11:33;;;;;;;40.97;18.95;;;;;;;;;;4991488;28;20057;-67
2021/12/21 02:13:59;;;;;;;39.38;18.30;;;;;;;;;;4989487;28;20429;-67
2021/12/21 02:16:40;;;;;;;44.03;19.10;;;;;;;;;;4991193;28;20072;-67
2021/12/21 02:19:17;;;;;;;50.42;18.77;;;;;;;;;;4990916;28;20034;-68
2021/12/21 02:21:48;;;;;;;43.40;18.45;;;;;;;;;;4991104;28;20105;-68
2021/12/21 02:24:18;;;;;;;43.90;18.90;;;;;;;;;;4990513;28;20030;-68
2021/12/21 02:29:32;;;;;;;35.15;18.60;;;;;;;;;;4989803;28;20555;-69
2021/12/21 02:31:58;;;;;;;38.88;17.80;;;;;;;;;;4990215;28;20038;-68
2021/12/21 02:34:23;;;;;;;44.38;18.77;;;;;;;;;;4990581;28;20052;-68
2021/12/21 02:36:49;;;;;;;38.25;17.33;;;;;;;;;;4990351;28;20497;-68
2021/12/21 02:39:15;;;;;;;37.80;17.80;;;;;;;;;;4990618;28;20026;-68
2021/12/21 02:41:41;;;;;;;41.40;18.80;;;;;;;;;;4973403;28;20531;-68
2021/12/21 02:44:06;;;;;;;42.97;18.73;;;;;;;;;;4990786;28;20037;-68
2021/12/21 02:46:32;;;;;;;47.58;18.98;;;;;;;;;;4988767;28;20421;-68
2021/12/21 02:48:57;;;;;;;40.25;17.58;;;;;;;;;;4989268;28;20523;-68
2021/12/21 02:51:23;;;;;;;38.22;17.20;;;;;;;;;;4989394;28;20041;-68
2021/12/21 02:53:48;;;;;;;35.85;17.38;;;;;;;;;;4990479;28;20030;-68
2021/12/21 02:56:13;;;;;;;42.17;17.00;;;;;;;;;;4988665;28;20121;-67
2021/12/21 02:58:39;;;;;;;37.60;16.95;;;;;;;;;;4989175;28;20045;-67
2021/12/21 03:01:05;;;;;;;33.00;16.42;;;;;;;;;;4989646;28;20034;-67
2021/12/21 03:03:30;;;;;;;32.03;16.27;;;;;;;;;;4989308;28;20051;-67
2021/12/21 03:05:57;;;;;;;36.47;16.23;;;;;;;;;;4988781;28;20072;-67
2021/12/21 03:08:37;;;;;;;31.08;15.75;;;;;;;;;;4989835;28;20034;-67
2021/12/21 03:16:13;;;;;;;36.70;15.73;;;;;;;;;;4988855;28;20037;-67
2021/12/21 03:18:39;;;;;;;32.10;16.25;;;;;;;;;;4990240;28;20034;-67
2021/12/21 03:21:04;;;;;;;38.85;16.38;;;;;;;;;;4990399;28;20118;-67
2021/12/21 03:23:29;;;;;;;32.88;15.57;;;;;;;;;;4990244;28;20029;-67
2021/12/21 03:25:55;;;;;;;38.20;15.80;;;;;;;;;;4989721;28;20026;-66
2021/12/21 03:28:20;;;;;;;32.20;16.05;;;;;;;;;;4990292;28;20026;-67
2021/12/21 03:30:45;;;;;;;29.05;14.27;;;;;;;;;;4989735;28;20122;-67
2021/12/21 03:33:11;;;;;;;36.42;16.20;;;;;;;;;;4990265;28;20050;-67
2021/12/21 03:35:36;;;;;;;32.95;15.32;;;;;;;;;;4990019;28;20064;-67
2021/12/21 03:38:01;;;;;;;34.03;14.82;;;;;;;;;;4989633;28;20030;-67
2021/12/21 03:40:31;;;;;;;32.83;15.15;;;;;;;;;;4990148;28;20080;-67
2021/12/21 03:42:57;;;;;;;37.05;15.57;;;;;;;;;;4990736;28;20023;-67
2021/12/21 03:45:22;;;;;;;30.85;13.75;;;;;;;;;;4988817;28;20034;-67
2021/12/21 03:47:47;;;;;;;35.25;15.10;;;;;;;;;;4989658;28;20101;-67
2021/12/21 03:50:18;;;;;;;32.65;14.68;;;;;;;;;;4993387;28;20030;-66
2021/12/21 03:52:43;;;;;;;32.85;14.63;;;;;;;;;;4993901;28;20412;-67
2021/12/21 03:55:09;;;;;;;40.13;16.33;;;;;;;;;;4993674;28;20022;-67
2021/12/21 03:57:34;;;;;;;35.10;15.35;;;;;;;;;;4992764;28;20165;-67
2021/12/21 04:00:00;;;;;;;36.83;16.30;;;;;;;;;;4993659;28;20080;-67
2021/12/21 04:02:26;;;;;;;30.67;14.88;;;;;;;;;;4991560;28;20042;-67
2021/12/21 04:04:53;;;;;;;34.45;15.20;;;;;;;;;;4993700;28;20026;-67
2021/12/21 04:07:18;;;;;;;35.88;16.05;;;;;;;;;;4991939;28;20105;-67
2021/12/21 04:09:44;;;;;;;36.50;15.00;;;;;;;;;;4993365;28;20520;-66
2021/12/21 04:12:09;;;;;;;31.40;14.52;;;;;;;;;;4993282;28;20137;-67
2021/12/21 04:14:36;;;;;;;34.97;14.50;;;;;;;;;;4991859;28;20033;-67
2021/12/21 04:17:01;;;;;;;32.35;15.20;;;;;;;;;;4993324;28;20034;-67
2021/12/21 04:19:26;;;;;;;32.20;13.45;;;;;;;;;;4992725;28;20034;-67
2021/12/21 04:21:52;;;;;;;34.08;14.57;;;;;;;;;;4993273;28;20030;-67
2021/12/21 04:24:17;;;;;;;36.47;15.57;;;;;;;;;;4993480;28;20038;-67
2021/12/21 04:26:42;;;;;;;30.23;15.18;;;;;;;;;;4993219;28;20030;-67
2021/12/21 04:29:08;;;;;;;32.47;14.57;;;;;;;;;;5006131;28;20034;-66
2021/12/21 04:31:33;;;;;;;33.60;15.68;;;;;;;;;;5011477;28;20821;-67
2021/12/21 04:33:59;;;;;;;34.40;14.80;;;;;;;;;;5011513;28;20029;-67
2021/12/21 04:36:24;;;;;;;34.25;15.85;;;;;;;;;;5012314;28;20034;-67
2021/12/21 04:38:51;;;;;;;30.75;14.57;;;;;;;;;;5010743;28;20429;-67
2021/12/21 04:41:22;;;;;;;31.38;13.80;;;;;;;;;;5011853;28;20108;-66
2021/12/21 04:43:48;;;;;;;41.30;15.43;;;;;;;;;;4996385;28;20538;-67
2021/12/21 04:46:13;;;;;;;30.42;15.13;;;;;;;;;;4994678;28;20116;-67
2021/12/21 04:48:39;;;;;;;31.00;14.73;;;;;;;;;;4995438;28;20042;-67
2021/12/21 04:51:04;;;;;;;30.75;14.57;;;;;;;;;;4996189;28;20465;-67
2021/12/21 04:53:29;;;;;;;32.28;14.20;;;;;;;;;;4993710;28;20038;-67
2021/12/21 04:55:55;;;;;;;25.08;14.25;;;;;;;;;;4995271;28;20100;-68
2021/12/21 04:58:20;;;;;;;30.30;13.27;;;;;;;;;;4992886;28;20124;-68
2021/12/21 05:00:46;;;;;;;28.73;14.18;;;;;;;;;;4979974;28;20039;-67
2021/12/21 05:03:11;;;;;;;31.55;15.55;;;;;;;;;;4994736;28;20465;-68
2021/12/21 05:05:37;;;;;;;32.97;15.32;;;;;;;;;;4994283;28;20091;-67
2021/12/21 05:08:08;;;;;;;32.30;14.52;;;;;;;;;;4994236;28;20121;-67
2021/12/21 05:10:49;;;;;;;33.15;15.10;;;;;;;;;;4994830;28;20038;-68
2021/12/21 05:13:15;;;;;;;31.50;14.68;;;;;;;;;;4994231;28;20061;-67
2021/12/21 05:15:40;;;;;;;33.10;14.75;;;;;;;;;;4994090;28;20064;-68
2021/12/21 05:18:05;;;;;;;28.33;13.82;;;;;;;;;;4994180;28;20109;-67
2021/12/21 05:20:31;;;;;;;28.52;13.73;;;;;;;;;;4993777;28;20083;-67
2021/12/21 05:22:56;;;;;;;28.88;14.48;;;;;;;;;;4993278;28;20065;-67
2021/12/21 05:25:21;;;;;;;25.92;12.35;;;;;;;;;;4993874;28;20084;-67
2021/12/21 05:27:47;;;;;;;26.65;13.32;;;;;;;;;;4995823;28;20084;-68
2021/12/21 05:30:12;;;;;;;29.65;14.35;;;;;;;;;;4992121;28;20089;-68
2021/12/21 05:32:38;;;;;;;31.00;13.65;;;;;;;;;;4994082;28;20509;-68
2021/12/21 05:35:03;;;;;;;27.77;13.35;;;;;;;;;;4992703;28;20041;-68
2021/12/21 05:37:29;;;;;;;34.78;14.25;;;;;;;;;;4994001;28;20492;-69
2021/12/21 05:40:09;;;;;;;25.85;14.20;;;;;;;;;;4993578;28;20079;-68
2021/12/21 05:42:34;;;;;;;27.98;12.73;;;;;;;;;;4994392;28;20030;-68
2021/12/21 05:44:59;;;;;;;30.55;13.57;;;;;;;;;;4960492;28;1032194;-67
2021/12/21 05:47:25;;;;;;;25.48;13.30;;;;;;;;;;4995648;28;20041;-68
2021/12/21 05:49:50;;;;;;;33.97;14.35;;;;;;;;;;4996778;28;20062;-68
2021/12/21 05:52:15;;;;;;;30.30;14.90;;;;;;;;;;4994503;28;20056;-67
2021/12/21 05:54:40;;;;;;;32.58;15.07;;;;;;;;;;4997082;28;20069;-68
2021/12/21 05:57:06;;;;;;;32.75;16.00;;;;;;;;;;4996035;28;20065;-69
2021/12/21 05:59:31;;;;;;;35.35;15.02;;;;;;;;;;4996361;28;20093;-68
2021/12/21 06:01:56;;;;;;;30.50;15.35;;;;;;;;;;4996748;28;20093;-68
2021/12/21 06:04:23;;;;;;;33.40;15.48;;;;;;;;;;4996363;28;20796;-68
2021/12/21 06:06:49;;;;;;;37.72;15.73;;;;;;;;;;4994272;28;20033;-69
2021/12/21 06:09:15;;;;;;;31.48;15.35;;;;;;;;;;4995552;28;20495;-68
2021/12/21 06:11:47;;;;;;;38.22;15.43;;;;;;;;;;4994038;28;20504;-67
2021/12/21 06:26:48;;;;;;;31.73;14.80;;;;;;;;;;4991296;28;20034;-68
2021/12/21 06:29:14;;;;;;;32.85;14.57;;;;;;;;;;4976944;28;20026;-69
2021/12/21 06:31:40;;;;;;;35.08;14.02;;;;;;;;;;4992629;28;20077;-67
2021/12/21 06:34:05;;;;;;;32.38;15.32;;;;;;;;;;4991261;28;20531;-68
2021/12/21 06:36:31;;;;;;;37.10;16.55;;;;;;;;;;4994111;28;20141;-68
2021/12/21 06:38:56;;;;;;;39.78;17.30;;;;;;;;;;4992886;28;20018;-68
2021/12/21 06:41:21;;;;;;;26.98;13.07;;;;;;;;;;4993636;28;20424;-68
2021/12/21 06:43:47;;;;;;;29.65;14.20;;;;;;;;;;4993622;28;20049;-69
2021/12/21 06:51:49;;;;;;;36.88;13.93;;;;;;;;;;4998235;28;20041;-67
2021/12/21 06:54:14;;;;;;;27.77;13.52;;;;;;;;;;4995789;28;20045;-69
2021/12/21 06:56:40;;;;;;;24.95;13.00;;;;;;;;;;4993222;28;20050;-68
2021/12/21 06:59:05;;;;;;;36.53;15.00;;;;;;;;;;4993461;28;20038;-68
2021/12/21 07:01:32;;;;;;;33.33;13.63;;;;;;;;;;4993037;28;20035;-68
2021/12/21 07:03:57;;;;;;;32.90;14.18;;;;;;;;;;4993058;28;20500;-68
2021/12/21 07:06:23;;;;;;;31.05;14.18;;;;;;;;;;4993336;28;20034;-68
2021/12/21 07:09:04;;;;;;;29.80;15.02;;;;;;;;;;4993050;28;20437;-68
2021/12/21 07:11:38;;;;;;;32.38;14.73;;;;;;;;;;4994080;28;20484;-68
2021/12/21 07:19:31;;;;;;;31.58;14.65;;;;;;;;;;4993766;28;20069;-68
2021/12/21 07:21:57;;;;;;;31.15;14.25;;;;;;;;;;4990076;28;20519;-68
2021/12/21 07:24:22;;;;;;;26.00;13.15;;;;;;;;;;4992408;28;20804;-68
2021/12/21 07:26:48;;;;;;;31.25;13.98;;;;;;;;;;4996579;28;20026;-69
2021/12/21 07:29:13;;;;;;;24.63;12.65;;;;;;;;;;4997058;28;20049;-68
2021/12/21 07:31:39;;;;;;;31.13;12.82;;;;;;;;;;4997996;28;20041;-68
2021/12/21 07:34:04;;;;;;;28.88;13.05;;;;;;;;;;4997219;28;20027;-69
2021/12/21 07:36:31;;;;;;;24.33;12.93;;;;;;;;;;4998368;28;20044;-67
2021/12/21 07:38:57;;;;;;;34.15;13.20;;;;;;;;;;4983123;28;20037;-68
2021/12/21 07:41:23;;;;;;;26.58;13.32;;;;;;;;;;4998527;28;20030;-68
2021/12/21 07:43:48;;;;;;;20.10;10.90;;;;;;;;;;5001060;28;20022;-68
2021/12/21 07:46:14;;;;;;;23.95;12.60;;;;;;;;;;4996905;28;20092;-68
2021/12/21 07:48:40;;;;;;;24.58;10.70;;;;;;;;;;4998257;28;20057;-69
2021/12/21 07:51:07;;;;;;;23.85;12.07;;;;;;;;;;4985116;28;20078;-68
2021/12/21 07:53:32;;;;;;;21.25;10.73;;;;;;;;;;4996883;28;20096;-68
2021/12/21 07:56:02;;;;;;;24.20;10.52;;;;;;;;;;4998497;28;20057;-68
2021/12/21 07:58:29;;;;;;;20.02;11.05;;;;;;;;;;4996707;28;20027;-68
2021/12/21 08:00:55;;;;;;;18.88;10.38;;;;;;;;;;4993460;28;20500;-68
2021/12/21 08:03:20;;;;;;;23.42;12.00;;;;;;;;;;4996331;28;20075;-69
2021/12/21 08:05:49;;;;;;;23.88;11.30;;;;;;;;;;4994582;28;20025;-68
2021/12/21 08:08:19;;;;;;;20.60;11.13;;;;;;;;;;4996608;28;20144;-68
2021/12/21 08:10:52;;;;;;;28.00;10.13;;;;;;;;;;4995731;28;20022;-67
2021/12/21 08:13:18;;;;;;;15.80;9.30;;;;;;;;;;4997161;28;20027;-67
2021/12/21 08:15:43;;;;;;;17.90;10.10;;;;;;;;;;4995587;28;20034;-68
2021/12/21 08:18:09;;;;;;;20.80;10.27;;;;;;;;;;4995755;28;20447;-69
2021/12/21 08:20:35;;;;;;;24.05;10.25;;;;;;;;;;4998251;28;20045;-67
2021/12/21 08:23:01;;;;;;;24.08;10.10;;;;;;;;;;4996168;28;20172;-68
2021/12/21 08:25:27;;;;;;;18.92;9.90;;;;;;;;;;4995717;28;20113;-68
2021/12/21 08:27:53;;;;;;;26.63;9.23;;;;;;;;;;4994864;28;20025;-67
2021/12/21 08:30:18;;;;;;;14.93;8.30;;;;;;;;;;4993948;28;20030;-69
2021/12/21 08:32:44;;;;;;;23.00;9.63;;;;;;;;;;4995317;28;20045;-68
2021/12/21 08:35:12;;;;;;;21.02;10.23;;;;;;;;;;4995804;28;20069;-68
2021/12/21 08:37:37;;;;;;;31.08;9.95;;;;;;;;;;4996915;28;20030;-68
2021/12/21 08:40:03;;;;;;;21.65;10.00;;;;;;;;;;4996004;28;20423;-68
2021/12/21 08:42:29;;;;;;;18.90;9.93;;;;;;;;;;4996170;28;20026;-68
2021/12/21 08:44:56;;;;;;;21.38;9.95;;;;;;;;;;4993185;28;20420;-71
2021/12/21 08:47:22;;;;;;;17.73;9.18;;;;;;;;;;4995727;28;20551;-67
2021/12/21 08:49:49;;;;;;;21.15;9.43;;;;;;;;;;4979174;28;20022;-67
2021/12/21 08:52:15;;;;;;;21.88;9.88;;;;;;;;;;4995884;28;20710;-69
2021/12/21 08:54:40;;;;;;;17.27;10.50;;;;;;;;;;4995706;28;20113;-67
2021/12/21 08:57:05;;;;;;;21.50;10.45;;;;;;;;;;4994812;28;20465;-68
2021/12/21 08:59:31;;;;;;;20.20;10.15;;;;;;;;;;4993108;28;20489;-67
2021/12/21 09:01:56;;;;;;;17.20;9.43;;;;;;;;;;4993775;28;20089;-68
2021/12/21 09:04:22;;;;;;;19.95;10.68;;;;;;;;;;4996146;28;20176;-67
2021/12/21 09:06:47;;;;;;;16.15;9.80;;;;;;;;;;4993988;28;20018;-68
2021/12/21 09:09:13;;;;;;;17.25;9.45;;;;;;;;;;4996179;28;20387;-67
2021/12/21 09:11:38;;;;;;;16.67;10.18;;;;;;;;;;4996292;28;20484;-69
2021/12/21 09:14:04;;;;;;;20.45;10.73;;;;;;;;;;4995840;28;20057;-67
2021/12/21 09:16:29;;;;;;;20.63;9.50;;;;;;;;;;4998768;28;20065;-68
2021/12/21 09:18:54;;;;;;;15.85;9.57;;;;;;;;;;4996814;28;20281;-68
2021/12/21 09:21:20;;;;;;;24.60;11.07;;;;;;;;;;4997089;28;20079;-67
2021/12/21 09:23:45;;;;;;;20.15;10.57;;;;;;;;;;4998114;28;20026;-69
2021/12/21 09:26:10;;;;;;;19.77;10.07;;;;;;;;;;4995423;28;20062;-67
2021/12/21 09:28:35;;;;;;;19.25;11.55;;;;;;;;;;4995513;28;20369;-67
2021/12/21 09:31:01;;;;;;;17.67;10.50;;;;;;;;;;4993573;28;20537;-67
2021/12/21 09:33:26;;;;;;;19.13;10.40;;;;;;;;;;4994697;28;20030;-67
2021/12/21 09:35:52;;;;;;;19.67;10.48;;;;;;;;;;4994740;28;20487;-67
2021/12/21 09:38:18;;;;;;;19.70;10.95;;;;;;;;;;4992120;28;20991;-68
2021/12/21 09:40:43;;;;;;;21.70;10.30;;;;;;;;;;4989134;28;20030;-68
2021/12/21 09:43:09;;;;;;;18.38;9.57;;;;;;;;;;4989395;28;20030;-68
2021/12/21 09:45:35;;;;;;;20.85;10.82;;;;;;;;;;4996621;28;20029;-68
2021/12/21 09:48:00;;;;;;;18.38;10.15;;;;;;;;;;4993256;28;20480;-67
2021/12/21 09:50:26;;;;;;;22.80;11.50;;;;;;;;;;4991111;28;20050;-67
2021/12/21 09:52:54;;;;;;;15.32;9.27;;;;;;;;;;4994626;28;20042;-68
2021/12/21 09:55:20;;;;;;;20.08;11.00;;;;;;;;;;4978025;28;20044;-67
2021/12/21 09:57:45;;;;;;;17.67;10.15;;;;;;;;;;4988424;28;20485;-68
2021/12/21 10:00:34;;;;;;;17.63;10.32;;;;;;;;;;4982213;28;20038;-68
2021/12/21 10:03:05;;;;;;;13.95;9.02;;;;;;;;;;4985266;28;20113;-68
2021/12/21 10:05:35;;;;;;;16.30;9.32;;;;;;;;;;4985136;28;20489;-67
2021/12/21 10:08:02;;;;;;;17.92;9.68;;;;;;;;;;4970135;28;20472;-67
2021/12/21 10:10:31;;;;;;;17.20;9.02;;;;;;;;;;4985411;28;20115;-68
2021/12/21 10:13:05;;;;;;;20.42;9.95;;;;;;;;;;4992041;28;20028;-67
2021/12/21 10:15:31;;;;;;;17.70;10.10;;;;;;;;;;4994852;28;20113;-67
2021/12/21 10:17:58;;;;;;;15.32;9.35;;;;;;;;;;4977524;28;20515;-69
2021/12/21 10:20:43;;;;;;;17.85;9.27;;;;;;;;;;4974835;28;20060;-68
2021/12/21 10:23:23;;;;;;;17.00;9.63;;;;;;;;;;4984230;28;20049;-71
2021/12/21 10:26:11;;;;;;;17.45;10.13;;;;;;;;;;4992836;28;20026;-67
2021/12/21 10:28:43;;;;;;;20.30;10.30;;;;;;;;;;4997874;28;20046;-67
2021/12/21 10:31:13;;;;;;;16.98;9.40;;;;;;;;;;4996799;28;20081;-67
2021/12/21 10:33:40;;;;;;;14.98;9.45;;;;;;;;;;4996718;28;20034;-68
2021/12/21 10:36:07;;;;;;;17.23;9.82;;;;;;;;;;4978156;28;20491;-67
2021/12/21 10:38:37;;;;;;;16.60;8.88;;;;;;;;;;4997441;28;20448;-68
2021/12/21 10:41:15;;;;;;;16.77;10.23;;;;;;;;;;4997977;28;20026;-67
2021/12/21 10:43:40;;;;;;;19.15;9.95;;;;;;;;;;4981174;28;20041;-67
2021/12/21 10:46:06;;;;;;;19.13;10.75;;;;;;;;;;4996225;28;20022;-67
2021/12/21 10:48:35;;;;;;;23.27;10.65;;;;;;;;;;4996424;28;20034;-68
2021/12/21 10:51:00;;;;;;;18.48;9.90;;;;;;;;;;4995394;28;20026;-68
2021/12/21 10:53:26;;;;;;;19.08;10.63;;;;;;;;;;4994068;28;20069;-67
2021/12/21 10:56:08;;;;;;;16.83;9.63;;;;;;;;;;4979865;28;20066;-68
2021/12/21 10:58:40;;;;;;;16.35;9.32;;;;;;;;;;4996830;28;20021;-68
2021/12/21 11:01:08;;;;;;;17.58;9.30;;;;;;;;;;4994818;28;20180;-68
2021/12/21 11:03:45;;;;;;;17.52;10.02;;;;;;;;;;4995636;28;20034;-67
2021/12/21 11:06:12;;;;;;;18.42;10.15;;;;;;;;;;4992192;28;20049;-67
2021/12/21 11:08:42;;;;;;;16.40;9.30;;;;;;;;;;4980106;28;20057;-68
2021/12/21 11:11:20;;;;;;;14.57;8.90;;;;;;;;;;4994748;28;20552;-67
2021/12/21 11:13:46;;;;;;;16.48;8.95;;;;;;;;;;4993307;28;20512;-67
2021/12/21 11:16:12;;;;;;;15.05;9.32;;;;;;;;;;4993186;28;20056;-67
2021/12/21 11:18:38;;;;;;;17.10;9.35;;;;;;;;;;4993895;28;20053;-67
2021/12/21 11:21:06;;;;;;;16.67;9.25;;;;;;;;;;4992880;28;20122;-67
2021/12/21 11:23:31;;;;;;;15.23;8.88;;;;;;;;;;4992994;28;20362;-68
2021/12/21 11:25:58;;;;;;;13.73;8.68;;;;;;;;;;4994408;28;20037;-67
2021/12/21 11:28:29;;;;;;;16.77;9.40;;;;;;;;;;4993834;28;20484;-67
2021/12/21 11:30:58;;;;;;;14.38;8.82;;;;;;;;;;4990818;28;20031;-67
2021/12/21 11:33:25;;;;;;;14.10;8.68;;;;;;;;;;4996574;28;20033;-68
2021/12/21 11:38:34;;;;;;;15.30;8.43;;;;;;;;;;4982915;28;20053;-67
2021/12/21 11:40:59;;;;;;;15.13;8.90;;;;;;;;;;4993698;28;20034;-68
2021/12/21 11:43:33;;;;;;;14.43;8.68;;;;;;;;;;4975793;28;20036;-68
2021/12/21 11:46:11;;;;;;;19.20;9.27;;;;;;;;;;4981122;28;20030;-67
2021/12/21 11:48:51;;;;;;;16.90;9.55;;;;;;;;;;4978787;28;20373;-68
2021/12/21 11:51:16;;;;;;;15.82;8.98;;;;;;;;;;4995435;28;20091;-68
2021/12/21 11:53:42;;;;;;;15.73;9.02;;;;;;;;;;4993002;28;20031;-67
2021/12/21 11:56:08;;;;;;;20.20;9.55;;;;;;;;;;4991297;28;20021;-67
2021/12/21 11:58:38;;;;;;;16.02;9.48;;;;;;;;;;4993122;28;20026;-68
2021/12/21 12:01:26;;;;;;;18.40;9.85;;;;;;;;;;4992274;28;20380;-67
2021/12/21 12:04:08;;;;;;;15.82;10.00;;;;;;;;;;4995811;28;20042;-68
2021/12/21 12:06:46;;;;;;;15.25;8.93;;;;;;;;;;4996593;28;20437;-67
2021/12/21 12:09:21;;;;;;;13.98;8.60;;;;;;;;;;4997207;28;20041;-68
2021/12/21 12:11:46;;;;;;;17.17;9.23;;;;;;;;;;5000217;28;20060;-68
2021/12/21 12:14:18;;;;;;;15.65;8.60;;;;;;;;;;4999929;28;20017;-69
2021/12/21 12:16:54;;;;;;;18.63;9.73;;;;;;;;;;4998484;28;20476;-67
2021/12/21 12:19:21;;;;;;;16.77;9.25;;;;;;;;;;4998298;28;20029;-67
2021/12/21 12:21:56;;;;;;;16.05;8.63;;;;;;;;;;4999523;28;20595;-67
2021/12/21 12:24:23;;;;;;;15.52;8.95;;;;;;;;;;5000453;28;20116;-67
2021/12/21 12:27:02;;;;;;;13.68;8.85;;;;;;;;;;4982490;28;20037;-67
2021/12/21 12:29:28;;;;;;;16.73;9.85;;;;;;;;;;5000246;28;20037;-67
2021/12/21 12:32:07;;;;;;;17.45;9.77;;;;;;;;;;4981053;28;20042;-68
2021/12/21 12:34:34;;;;;;;15.63;9.18;;;;;;;;;;5000964;28;20518;-67
2021/12/21 12:37:00;;;;;;;13.98;9.15;;;;;;;;;;4997742;28;20053;-68
2021/12/21 12:39:39;;;;;;;15.95;9.35;;;;;;;;;;4997559;28;20121;-67
2021/12/21 12:42:26;;;;;;;17.52;9.68;;;;;;;;;;4999258;28;20034;-67
2021/12/21 12:45:10;;;;;;;12.30;8.40;;;;;;;;;;4997560;28;20030;-68
2021/12/21 12:47:37;;;;;;;15.02;8.80;;;;;;;;;;4982286;28;20284;-70
2021/12/21 12:50:02;;;;;;;17.33;9.55;;;;;;;;;;4999005;28;20117;-67
2021/12/21 12:52:28;;;;;;;18.15;9.38;;;;;;;;;;4978704;28;20105;-67
2021/12/21 12:55:04;;;;;;;13.70;8.63;;;;;;;;;;4997665;28;20136;-67
2021/12/21 12:57:32;;;;;;;15.75;8.60;;;;;;;;;;4995223;28;20045;-69
2021/12/21 13:00:07;;;;;;;17.33;9.50;;;;;;;;;;4994591;28;20072;-68
2021/12/21 13:02:33;;;;;;;17.10;9.48;;;;;;;;;;4993179;28;20050;-68
2021/12/21 13:05:05;;;;;;;18.73;8.70;;;;;;;;;;4999224;28;20160;-66
2021/12/21 13:07:31;;;;;;;15.27;9.65;;;;;;;;;;4992009;28;20028;-68
2021/12/21 13:10:08;;;;;;;15.07;9.07;;;;;;;;;;4989767;28;20034;-68
2021/12/21 13:12:33;;;;;;;15.10;9.30;;;;;;;;;;4985477;28;20472;-67
2021/12/21 13:14:59;;;;;;;15.90;8.52;;;;;;;;;;4991864;28;20022;-67
2021/12/21 13:17:24;;;;;;;18.00;9.23;;;;;;;;;;4986965;28;20026;-67
2021/12/21 13:19:50;;;;;;;14.57;9.10;;;;;;;;;;4988032;28;20049;-68
2021/12/21 13:22:23;;;;;;;14.88;8.98;;;;;;;;;;4984950;28;20053;-68
2021/12/21 13:24:49;;;;;;;15.13;8.77;;;;;;;;;;4978003;28;20076;-67
2021/12/21 13:27:14;;;;;;;14.30;8.77;;;;;;;;;;4996025;28;20564;-68
2021/12/21 13:29:42;;;;;;;19.90;10.23;;;;;;;;;;4982082;28;20034;-67
2021/12/21 13:32:08;;;;;;;15.68;9.82;;;;;;;;;;4973417;28;20084;-69
2021/12/21 13:34:34;;;;;;;16.70;8.70;;;;;;;;;;4986952;28;20152;-67
2021/12/21 13:37:06;;;;;;;15.75;9.45;;;;;;;;;;4987859;28;20396;-67
2021/12/21 13:39:44;;;;;;;14.40;8.70;;;;;;;;;;4972239;28;20587;-68
2021/12/21 13:42:11;;;;;;;16.73;8.93;;;;;;;;;;4985453;28;20560;-67
2021/12/21 13:44:47;;;;;;;14.20;9.05;;;;;;;;;;4986490;28;20034;-68
2021/12/21 13:47:27;;;;;;;17.42;9.23;;;;;;;;;;4970319;28;20170;-67
2021/12/21 13:50:11;;;;;;;16.25;9.65;;;;;;;;;;4988018;28;20075;-67
2021/12/21 13:52:48;;;;;;;16.13;9.18;;;;;;;;;;4990189;28;20049;-67
2021/12/21 13:55:26;;;;;;;16.20;9.13;;;;;;;;;;4995370;28;20030;-67
2021/12/21 13:57:53;;;;;;;18.35;8.90;;;;;;;;;;4992841;28;20057;-66
2021/12/21 14:00:19;;;;;;;13.75;8.75;;;;;;;;;;4994743;28;20485;-67
2021/12/21 14:02:51;;;;;;;16.85;9.02;;;;;;;;;;4997621;28;20033;-68
2021/12/21 14:05:20;;;;;;;17.13;9.70;;;;;;;;;;4996099;28;20378;-68
2021/12/21 14:07:47;;;;;;;16.83;10.05;;;;;;;;;;4994271;28;20394;-67
2021/12/21 14:10:15;;;;;;;15.50;9.30;;;;;;;;;;4997218;28;20026;-66
2021/12/21 14:12:41;;;;;;;15.68;8.73;;;;;;;;;;4994392;28;20117;-67
2021/12/21 14:15:07;;;;;;;14.48;8.55;;;;;;;;;;4966421;28;20121;-66
2021/12/21 14:17:32;;;;;;;17.02;9.10;;;;;;;;;;4995306;28;20033;-66
2021/12/21 14:19:59;;;;;;;15.77;9.90;;;;;;;;;;4993670;28;20034;-67
2021/12/21 14:22:24;;;;;;;14.27;8.73;;;;;;;;;;4993407;28;20030;-67
2021/12/21 14:24:50;;;;;;;18.17;9.73;;;;;;;;;;4996022;28;20445;-66
2021/12/21 14:27:15;;;;;;;19.35;10.10;;;;;;;;;;4996826;28;20022;-68
2021/12/21 14:29:42;;;;;;;17.70;9.95;;;;;;;;;;4996541;28;20026;-67
2021/12/21 14:34:54;;;;;;;20.52;11.10;;;;;;;;;;4994391;28;20036;-68
2021/12/21 14:37:24;;;;;;;;;;;;;;;;;;4992873;28;20093;-67
2021/12/21 14:39:56;;;;;;;18.45;11.32;;;;;;;;;;4994079;28;20287;-67
2021/12/21 14:42:21;;;;;;;26.10;13.15;;;;;;;;;;4995407;28;20030;-68
2021/12/21 14:44:48;;;;;;;17.73;10.77;;;;;;;;;;4994596;28;20499;-67
2021/12/21 14:47:15;;;;;;;19.73;10.35;;;;;;;;;;4994284;28;20022;-68
2021/12/21 14:49:44;;;;;;;16.88;9.45;;;;;;;;;;4993918;28;20026;-67
2021/12/21 14:52:09;;;;;;;17.30;9.80;;;;;;;;;;4995553;28;20109;-67
2021/12/21 14:54:47;;;;;;;19.50;10.00;;;;;;;;;;4994548;28;20116;-69
2021/12/21 14:57:12;;;;;;;19.00;9.63;;;;;;;;;;4991652;28;20060;-69
2021/12/21 14:59:38;;;;;;;18.13;9.73;;;;;;;;;;4996027;28;20057;-69
2021/12/21 15:02:24;;;;;;;18.38;10.90;;;;;;;;;;4987969;28;20073;-69
2021/12/21 15:04:54;;;;;;;17.75;10.00;;;;;;;;;;4990312;28;20117;-68
2021/12/21 15:07:20;;;;;;;16.77;9.85;;;;;;;;;;4990461;28;20027;-69
2021/12/21 15:09:45;;;;;;;17.88;10.27;;;;;;;;;;4989879;28;20032;-69
2021/12/21 15:12:10;;;;;;;18.52;9.88;;;;;;;;;;4990957;28;20052;-70
2021/12/21 15:14:36;;;;;;;15.73;9.50;;;;;;;;;;4994650;28;20034;-69
2021/12/21 15:17:01;;;;;;;16.60;9.95;;;;;;;;;;4995198;28;20026;-70
2021/12/21 15:19:27;;;;;;;15.25;9.32;;;;;;;;;;4993493;28;20022;-69